Time;durP1;ratioP1;P1;durP2;ratioP2;P2;SDS_P1;SDS_P2;PMS_P1;PMS_P2;Temp;Humidity;BMP_temperature;BMP_pressure;BME280_temperature;BME280_humidity;BME280_pressure;Samples;Min_cycle;Max_cycle;Signal;HPM_P1;HPM_P2
2021/09/08 00:04:07;;;;;;;16.43;12.28;;;;;;;10.61;74.29;100621.08;253955;1104;118479;-69
2021/09/08 00:09:11;;;;;;;16.65;12.60;;;;;;;10.65;74.36;100627.63;256866;1102;117269;-69
2021/09/08 00:14:15;;;;;;;13.83;12.33;;;;;;;10.64;74.36;100631.32;255612;1103;116732;-69
2021/09/08 00:19:19;;;;;;;17.83;13.10;;;;;;;10.59;74.30;100631.14;257495;1101;116645;-67
2021/09/08 00:24:22;;;;;;;15.25;12.18;;;;;;;10.51;73.83;100631.38;257408;1101;116585;-67
2021/09/08 00:29:26;;;;;;;17.18;10.48;;;;;;;10.40;74.24;100636.33;256867;1101;116440;-67
2021/09/08 00:34:29;;;;;;;13.58;10.93;;;;;;;10.32;73.89;100638.44;254600;1096;116940;-70
2021/09/08 00:39:32;;;;;;;16.00;11.95;;;;;;;10.25;74.16;100638.45;254232;1102;117137;-69
2021/09/08 00:44:36;;;;;;;16.60;12.10;;;;;;;10.18;74.55;100632.29;254297;1096;116237;-70
2021/09/08 00:49:38;;;;;;;18.15;12.70;;;;;;;10.14;74.58;100636.40;254032;1104;116630;-70
2021/09/08 00:54:47;;;;;;;15.98;13.03;;;;;;;10.16;75.16;100649.52;254299;1103;116151;-68
2021/09/08 00:59:50;;;;;;;13.03;11.73;;;;;;;10.12;74.88;100644.59;254446;1102;118148;-70
2021/09/08 01:04:54;;;;;;;20.98;12.68;;;;;;;10.06;74.52;100639.31;254201;1101;115879;-69
2021/09/08 01:09:56;;;;;;;21.55;11.70;;;;;;;10.00;74.91;100638.30;254457;1104;115721;-69
2021/09/08 01:14:59;;;;;;;18.25;12.45;;;;;;;9.92;75.13;100640.36;254172;1102;117026;-70
2021/09/08 01:20:03;;;;;;;18.00;11.95;;;;;;;9.80;74.55;100640.98;254303;1102;115266;-70
2021/09/08 01:25:07;;;;;;;18.73;13.20;;;;;;;9.74;74.55;100641.84;254539;1103;119376;-69
2021/09/08 01:30:14;;;;;;;17.00;11.83;;;;;;;9.70;75.00;100635.28;254313;1104;116025;-69
2021/09/08 01:35:19;;;;;;;18.63;12.43;;;;;;;9.73;75.04;100637.53;255033;1101;115951;-69
2021/09/08 01:40:23;;;;;;;14.30;11.83;;;;;;;9.74;75.94;100631.19;254211;1101;115773;-69
2021/09/08 01:45:27;;;;;;;15.33;11.28;;;;;;;9.71;75.02;100633.44;254290;1102;115888;-69
2021/09/08 01:50:31;;;;;;;17.33;11.85;;;;;;;9.62;75.41;100637.33;255622;1102;115956;-69
2021/09/08 01:55:36;;;;;;;15.88;11.48;;;;;;;9.54;75.09;100638.36;255533;1104;115242;-69
2021/09/08 02:00:39;;;;;;;21.35;11.20;;;;;;;9.55;76.08;100640.00;255119;1096;116066;-69
2021/09/08 02:05:42;;;;;;;17.00;10.80;;;;;;;9.49;75.60;100632.01;254285;1102;115754;-69
2021/09/08 02:10:45;;;;;;;15.60;10.33;;;;;;;9.40;75.17;100626.09;256790;1103;115756;-67
2021/09/08 02:15:48;;;;;;;13.00;11.50;;;;;;;9.35;75.42;100625.89;256633;1101;116323;-66
2021/09/08 02:20:52;;;;;;;12.55;9.28;;;;;;;9.33;75.25;100625.27;257231;1101;115714;-68
2021/09/08 02:25:56;;;;;;;13.17;9.90;;;;;;;9.34;75.69;100624.25;257291;1101;115674;-67
2021/09/08 02:30:59;;;;;;;16.30;11.07;;;;;;;9.35;75.32;100620.56;257321;1101;115257;-68
2021/09/08 02:36:04;;;;;;;12.73;10.90;;;;;;;9.36;76.00;100615.04;256373;1104;115548;-68
2021/09/08 02:41:09;;;;;;;10.83;9.73;;;;;;;9.42;76.01;100619.55;255796;1097;116055;-68
2021/09/08 02:46:12;;;;;;;13.03;11.70;;;;;;;9.38;75.35;100605.02;255187;1102;116238;-67
2021/09/08 02:51:15;;;;;;;15.00;10.15;;;;;;;9.33;76.38;100618.11;255258;1102;115592;-67
2021/09/08 02:56:17;;;;;;;11.53;9.37;;;;;;;9.35;75.75;100621.39;255694;1097;115843;-67
2021/09/08 03:01:20;;;;;;;15.00;8.70;;;;;;;9.23;75.48;100619.53;254359;1097;114903;-70
2021/09/08 03:06:24;;;;;;;17.28;11.18;;;;;;;9.12;76.43;100615.66;255268;1101;116900;-70
2021/09/08 03:11:27;;;;;;;17.45;12.23;;;;;;;9.16;76.45;100616.07;254733;1102;115836;-69
2021/09/08 03:16:29;;;;;;;16.73;11.63;;;;;;;9.17;76.00;100621.19;254058;1104;115812;-69
2021/09/08 03:21:33;;;;;;;17.60;13.50;;;;;;;9.15;76.51;100622.41;254338;1096;115773;-71
2021/09/08 03:26:36;;;;;;;21.17;13.73;;;;;;;9.07;75.93;100623.42;254218;1103;117152;-70
2021/09/08 03:31:39;;;;;;;15.68;11.78;;;;;;;8.98;76.64;100614.81;254712;1102;116054;-68
2021/09/08 03:36:43;;;;;;;17.15;13.50;;;;;;;8.89;76.29;100621.33;254373;1101;116227;-67
2021/09/08 03:41:46;;;;;;;18.63;11.35;;;;;;;8.84;76.42;100615.83;255324;1101;115377;-67
2021/09/08 03:46:49;;;;;;;14.83;13.18;;;;;;;8.83;76.88;100621.34;254260;1102;115701;-71
2021/09/08 03:51:54;;;;;;;19.60;12.70;;;;;;;8.83;76.70;100630.14;254809;1102;115798;-67
2021/09/08 03:56:57;;;;;;;14.23;12.65;;;;;;;8.87;77.31;100626.03;255365;1101;115624;-69
2021/09/08 04:02:00;;;;;;;23.75;13.65;;;;;;;8.88;76.60;100635.65;256489;1103;116053;-69
2021/09/08 04:07:03;;;;;;;20.58;12.70;;;;;;;8.82;76.94;100636.48;254658;1104;115653;-70
2021/09/08 04:12:07;;;;;;;19.97;13.67;;;;;;;8.81;77.30;100637.50;254185;1104;114929;-68
2021/09/08 04:17:09;;;;;;;15.75;13.95;;;;;;;8.88;77.42;100632.98;254269;1102;116803;-69
2021/09/08 04:22:13;;;;;;;16.48;13.20;;;;;;;8.87;76.98;100630.53;254129;1103;115831;-69
2021/09/08 04:27:17;;;;;;;26.68;13.45;;;;;;;8.85;76.95;100641.39;255797;1104;115488;-66
2021/09/08 04:32:23;;;;;;;18.75;12.93;;;;;;;8.81;76.70;100645.47;257297;1101;115758;-66
2021/09/08 04:37:27;;;;;;;14.47;12.13;;;;;;;8.82;77.37;100640.97;257036;1101;115590;-68
2021/09/08 04:42:30;;;;;;;14.30;12.43;;;;;;;8.88;77.70;100638.30;256153;1102;115686;-67
2021/09/08 04:47:33;;;;;;;20.40;15.10;;;;;;;9.01;77.51;100634.86;255718;1104;116525;-66
2021/09/08 04:52:37;;;;;;;19.90;14.20;;;;;;;9.21;78.34;100635.69;254514;1101;116227;-70
2021/09/08 04:57:41;;;;;;;14.38;12.85;;;;;;;9.38;77.73;100630.80;256002;1101;115880;-67
2021/09/08 05:02:44;;;;;;;20.03;14.08;;;;;;;9.53;77.83;100644.70;254324;1101;115710;-68
2021/09/08 05:07:48;;;;;;;20.65;12.95;;;;;;;9.63;77.73;100647.78;254965;1101;115853;-66
2021/09/08 05:12:51;;;;;;;23.65;13.33;;;;;;;9.72;77.92;100643.06;254431;1101;115902;-69
2021/09/08 05:17:54;;;;;;;28.15;16.98;;;;;;;9.85;77.89;100639.55;256609;1101;115392;-65
2021/09/08 05:22:58;;;;;;;16.88;13.90;;;;;;;10.04;77.77;100644.03;254609;1097;116214;-66
2021/09/08 05:28:01;;;;;;;24.35;16.25;;;;;;;10.23;78.27;100635.17;255286;1103;116391;-65
2021/09/08 05:33:06;;;;;;;18.83;15.85;;;;;;;10.49;78.39;100641.42;255959;1104;115780;-66
2021/09/08 05:38:10;;;;;;;22.60;17.43;;;;;;;10.70;78.32;100635.80;255234;1101;115504;-67
2021/09/08 05:43:13;;;;;;;23.80;15.73;;;;;;;11.01;78.82;100642.98;254409;1097;115616;-67
2021/09/08 05:48:17;;;;;;;24.48;18.10;;;;;;;11.20;78.95;100641.22;255136;1101;115978;-65
2021/09/08 05:53:21;;;;;;;24.58;19.55;;;;;;;11.44;78.75;100645.75;254879;1096;115900;-67
2021/09/08 05:58:25;;;;;;;32.10;18.85;;;;;;;11.71;79.14;100636.46;254743;1101;115692;-67
2021/09/08 06:03:28;;;;;;;24.10;18.45;;;;;;;12.00;79.66;100637.64;256098;1101;116466;-68
2021/09/08 06:08:32;;;;;;;51.40;40.47;;;;;;;12.35;79.25;100634.38;254259;1097;116506;-67
2021/09/08 06:13:35;;;;;;;27.88;19.65;;;;;;;12.62;78.92;100635.66;256832;1101;115944;-67
2021/09/08 06:18:38;;;;;;;25.38;19.43;;;;;;;12.93;79.40;100625.77;255919;1103;115997;-67
2021/09/08 06:23:40;;;;;;;28.18;22.18;;;;;;;13.21;79.05;100627.84;256858;1102;118758;-67
2021/09/08 06:28:42;;;;;;;28.43;21.77;;;;;;;13.51;79.14;100638.48;256508;1101;116366;-68
2021/09/08 06:33:45;;;;;;;32.18;23.58;;;;;;;13.83;78.98;100632.54;257285;1101;116540;-67
2021/09/08 06:38:48;;;;;;;34.35;23.63;;;;;;;14.16;78.71;100639.14;257166;1102;115983;-67
2021/09/08 06:43:52;;;;;;;32.40;23.13;;;;;;;14.53;78.66;100646.91;255877;1104;116696;-67
2021/09/08 06:48:56;;;;;;;32.40;24.97;;;;;;;14.85;78.46;100647.24;256240;1102;115807;-68
2021/09/08 06:53:59;;;;;;;38.80;24.18;;;;;;;15.11;78.00;100641.27;256086;1101;116516;-68
2021/09/08 06:59:01;;;;;;;39.83;25.93;;;;;;;15.42;77.83;100639.91;254227;1104;116674;-68
2021/09/08 07:04:04;;;;;;;30.80;24.60;;;;;;;15.79;77.59;100637.55;254907;1103;117267;-68
2021/09/08 07:09:09;;;;;;;38.83;24.18;;;;;;;16.07;77.57;100640.09;254268;1104;116128;-68
2021/09/08 07:14:13;;;;;;;41.50;24.30;;;;;;;16.44;77.37;100640.29;255514;1096;117093;-68
2021/09/08 07:19:16;;;;;;;32.10;23.63;;;;;;;17.16;77.20;100645.36;255469;1104;117037;-69
2021/09/08 07:24:20;;;;;;;34.54;24.50;;;;;;;17.79;76.51;100635.63;254283;1096;116154;-69
2021/09/08 07:29:25;;;;;;;29.00;22.10;;;;;;;18.23;75.92;100638.02;254464;1096;115609;-68
2021/09/08 07:34:29;;;;;;;24.07;21.03;;;;;;;18.49;75.29;100647.03;255064;1104;115837;-68
2021/09/08 07:39:32;;;;;;;23.35;19.70;;;;;;;18.73;75.10;100645.50;254574;1104;116089;-69
2021/09/08 07:44:34;;;;;;;26.88;19.35;;;;;;;19.00;74.10;100649.88;254306;1102;115928;-69
2021/09/08 07:49:38;;;;;;;23.73;19.18;;;;;;;19.16;74.01;100646.13;254783;1101;115895;-69
2021/09/08 07:54:41;;;;;;;28.63;20.10;;;;;;;19.22;73.76;100644.24;254384;1101;115986;-68
2021/09/08 07:59:44;;;;;;;19.35;15.35;;;;;;;19.32;72.99;100653.15;256215;1101;116249;-68
2021/09/08 08:04:48;;;;;;;21.07;16.53;;;;;;;19.50;72.83;100655.36;254318;1101;116137;-68
2021/09/08 08:09:51;;;;;;;19.50;16.93;;;;;;;19.50;72.45;100652.66;255143;1096;115999;-67
2021/09/08 08:14:54;;;;;;;23.57;18.13;;;;;;;19.66;72.09;100649.92;254939;1103;115858;-69
2021/09/08 08:19:57;;;;;;;26.73;16.55;;;;;;;19.94;71.96;100649.33;254747;1100;116049;-68
2021/09/08 08:25:04;;;;;;;29.88;16.58;;;;;;;20.29;71.81;100653.82;254969;1096;115696;-68
2021/09/08 08:30:10;;;;;;;26.40;16.45;;;;;;;20.64;71.21;100652.07;254237;1103;116588;-67
2021/09/08 08:35:15;;;;;;;;;;;;;;;20.95;71.50;100655.41;254333;1101;116018;-69
2021/09/08 08:40:24;;;;;;;16.58;14.90;;;;;;;21.35;71.31;100654.34;255070;1101;103010;-67
2021/09/08 08:45:29;;;;;;;22.83;15.68;;;;;;;21.66;70.56;100655.69;256028;1101;116065;-69
2021/09/08 08:50:32;;;;;;;18.68;14.85;;;;;;;22.03;69.86;100659.67;254343;1101;115871;-68
2021/09/08 08:55:36;;;;;;;20.28;14.55;;;;;;;22.38;69.47;100653.83;254301;1102;116196;-68
2021/09/08 09:00:40;;;;;;;19.68;15.15;;;;;;;22.75;68.81;100665.84;254163;1104;116172;-67
2021/09/08 09:05:43;;;;;;;13.75;12.28;;;;;;;23.06;68.02;100663.53;255508;1104;116422;-68
2021/09/08 09:10:49;;;;;;;20.45;16.98;;;;;;;23.21;67.01;100662.50;254243;1104;117142;-67
2021/09/08 09:16:07;;;;;;;23.23;12.73;;;;;;;23.49;66.79;100664.20;254684;1104;116115;-69
2021/09/08 09:21:13;;;;;;;29.43;17.53;;;;;;;23.73;66.24;100664.89;254162;1103;115925;-70
2021/09/08 09:26:33;;;;;;;18.48;16.23;;;;;;;23.95;64.71;100660.68;254039;1104;116257;-69
2021/09/08 09:31:52;;;;;;;21.60;15.00;;;;;;;24.22;64.99;100657.96;253979;1103;115854;-69
2021/09/08 09:36:59;;;;;;;45.57;16.47;;;;;;;24.49;63.62;100657.97;254259;1104;116076;-68
2021/09/08 09:42:10;;;;;;;20.08;14.23;;;;;;;24.62;63.48;100652.81;254412;1097;116202;-69
2021/09/08 09:47:14;;;;;;;20.65;16.18;;;;;;;24.93;62.71;100639.30;254143;1104;116656;-69
2021/09/08 09:52:17;;;;;;;18.83;13.08;;;;;;;25.18;61.94;100636.79;254211;1103;117164;-68
2021/09/08 09:57:23;;;;;;;17.90;12.83;;;;;;;25.09;59.93;100635.91;254129;1096;116201;-68
2021/09/08 10:02:28;;;;;;;20.40;14.10;;;;;;;25.23;59.97;100632.33;254259;1104;117555;-68
2021/09/08 10:07:35;;;;;;;19.08;14.40;;;;;;;25.27;58.79;100636.05;255221;1103;116591;-68
2021/09/08 10:13:05;;;;;;;15.33;13.50;;;;;;;25.31;57.91;100632.39;254268;1101;116650;-69
2021/09/08 10:18:14;;;;;;;17.63;13.48;;;;;;;25.26;57.85;100629.78;256097;1097;117717;-70
2021/09/08 10:23:18;;;;;;;16.13;14.35;;;;;;;25.36;57.05;100629.54;254237;1102;116707;-68
2021/09/08 10:28:26;;;;;;;20.30;14.08;;;;;;;25.57;56.77;100624.35;256009;1096;116707;-69
2021/09/08 10:33:30;;;;;;;16.15;14.45;;;;;;;25.72;56.05;100621.23;254528;1096;116214;-68
2021/09/08 10:38:35;;;;;;;24.70;13.93;;;;;;;25.84;55.68;100618.72;254279;1102;117276;-71
2021/09/08 10:43:39;;;;;;;18.37;14.60;;;;;;;25.93;55.03;100618.77;254702;1102;117818;-70
2021/09/08 10:48:45;;;;;;;21.80;14.20;;;;;;;25.93;54.40;100602.38;256490;1101;116066;-69
2021/09/08 10:54:05;;;;;;;;;;;;;;;26.14;54.60;100602.59;256897;1101;116707;-69
2021/09/08 10:59:09;;;;;;;13.23;11.63;;;;;;;26.08;54.11;100604.66;256172;1102;103936;-69
2021/09/08 11:04:17;;;;;;;20.10;13.00;;;;;;;26.25;53.33;100605.84;254566;1101;116085;-68
2021/09/08 11:09:20;;;;;;;17.63;12.93;;;;;;;26.26;52.96;100591.86;255273;1103;115805;-71
2021/09/08 11:14:50;;;;;;;17.83;13.37;;;;;;;26.40;52.04;100592.54;255097;1096;209737;-69
2021/09/08 11:19:56;;;;;;;13.75;11.10;;;;;;;26.46;51.69;100588.53;255069;1097;115709;-69
2021/09/08 11:25:11;;;;;;;16.70;12.05;;;;;;;26.58;51.93;100585.17;254096;1104;116252;-69
2021/09/08 11:30:15;;;;;;;15.70;10.45;;;;;;;26.60;50.69;100585.63;254567;1103;116766;-68
2021/09/08 11:35:51;;;;;;;14.98;11.60;;;;;;;26.65;50.73;100576.47;254198;1104;119646;-71
2021/09/08 11:41:04;;;;;;;12.77;10.53;;;;;;;26.66;50.70;100576.15;254304;1097;116489;-71
2021/09/08 11:46:19;;;;;;;14.20;12.43;;;;;;;26.65;49.62;100571.80;254824;1102;116626;-68
2021/09/08 11:51:25;;;;;;;21.43;12.25;;;;;;;26.70;49.63;100566.17;254116;1102;115488;-68
2021/09/08 11:56:32;;;;;;;14.53;11.48;;;;;;;26.76;49.28;100559.42;254139;1096;115334;-70
2021/09/08 12:01:40;;;;;;;13.53;11.25;;;;;;;26.75;49.29;100557.81;254094;1102;116580;-69
2021/09/08 12:07:03;;;;;;;12.33;10.35;;;;;;;26.68;48.40;100557.48;254061;1097;117271;-71
2021/09/08 12:12:09;;;;;;;11.77;9.47;;;;;;;26.50;48.80;100553.96;254427;1101;116512;-71
2021/09/08 12:17:21;;;;;;;10.15;9.08;;;;;;;26.61;48.86;100550.89;255802;1101;115346;-69
2021/09/08 12:22:34;;;;;;;15.78;10.40;;;;;;;26.68;48.51;100546.55;255337;1097;115467;-71
2021/09/08 12:27:44;;;;;;;13.90;9.73;;;;;;;26.66;48.72;100539.79;255345;1097;116670;-71
2021/09/08 12:33:09;;;;;;;11.73;10.65;;;;;;;26.60;48.96;100538.38;254004;1104;115647;-71
2021/09/08 12:38:33;;;;;;;14.50;10.75;;;;;;;26.65;48.44;100533.52;255261;1096;115327;-69
2021/09/08 12:43:37;;;;;;;12.28;10.95;;;;;;;26.69;48.22;100525.48;253996;1103;117340;-67
2021/09/08 12:48:41;;;;;;;10.95;9.88;;;;;;;26.69;47.72;100530.95;255704;1104;116437;-70
2021/09/08 12:53:44;;;;;;;12.83;11.58;;;;;;;26.65;47.47;100527.24;255685;1101;115771;-71
2021/09/08 12:58:50;;;;;;;13.05;11.25;;;;;;;26.68;47.49;100510.19;254389;1101;115968;-71
2021/09/08 13:03:54;;;;;;;13.33;10.50;;;;;;;26.58;47.85;100502.34;254281;1103;115971;-69
2021/09/08 13:09:00;;;;;;;63.65;14.88;;;;;;;26.53;47.77;100497.03;254648;1104;116375;-70
2021/09/08 13:14:05;;;;;;;18.00;11.73;;;;;;;26.58;47.70;100488.67;254630;1104;116821;-70
2021/09/08 13:19:09;;;;;;;16.30;11.05;;;;;;;26.62;47.75;100484.13;255508;1101;115887;-70
2021/09/08 13:24:15;;;;;;;10.60;9.60;;;;;;;26.49;47.41;100469.53;254709;1096;116442;-69
2021/09/08 13:29:19;;;;;;;13.20;11.35;;;;;;;26.29;47.62;100470.97;255288;1101;116002;-69
2021/09/08 13:34:23;;;;;;;16.60;10.18;;;;;;;26.25;47.78;100469.19;254045;1101;115836;-69
2021/09/08 13:39:26;;;;;;;;;;;;;;;26.21;47.44;100463.56;254132;1103;115122;-69
2021/09/08 13:44:31;;;;;;;11.15;9.98;;;;;;;26.08;47.57;100456.31;255726;1104;103008;-70
2021/09/08 13:49:34;;;;;;;14.57;10.90;;;;;;;26.05;47.49;100446.83;254196;1104;115971;-69
2021/09/08 13:54:39;;;;;;;16.78;11.38;;;;;;;26.02;48.22;100438.46;254278;1104;116116;-71
2021/09/08 13:59:43;;;;;;;12.88;9.88;;;;;;;26.04;48.38;100433.48;254310;1096;115978;-69
2021/09/08 14:04:47;;;;;;;10.70;9.60;;;;;;;25.99;47.88;100434.44;255111;1102;115648;-69
2021/09/08 14:09:51;;;;;;;12.10;10.10;;;;;;;25.90;47.22;100425.45;254330;1104;116362;-70
2021/09/08 14:14:55;;;;;;;13.80;10.08;;;;;;;25.82;47.26;100427.05;254025;1102;116516;-69
2021/09/08 14:19:59;;;;;;;12.80;10.60;;;;;;;25.79;47.54;100424.95;254944;1101;210509;-69
2021/09/08 14:25:04;;;;;;;18.00;9.15;;;;;;;25.72;47.33;100419.16;255067;1103;115758;-69
2021/09/08 14:30:09;;;;;;;10.30;9.30;;;;;;;25.59;47.01;100419.28;254356;1101;116216;-69
2021/09/08 14:35:12;;;;;;;10.23;9.23;;;;;;;25.55;46.97;100407.38;257282;1101;115433;-69
2021/09/08 14:40:16;;;;;;;10.85;9.75;;;;;;;25.48;46.73;100400.45;257243;1101;115624;-69
2021/09/08 14:45:22;;;;;;;9.45;8.50;;;;;;;25.35;46.51;100408.79;256360;1104;115197;-70
2021/09/08 14:50:28;;;;;;;12.20;8.68;;;;;;;25.26;47.28;100406.02;256052;1101;115325;-69
2021/09/08 14:55:31;;;;;;;13.05;9.20;;;;;;;25.18;47.05;100404.88;254253;1097;116227;-68
2021/09/08 15:00:36;;;;;;;11.40;8.55;;;;;;;25.08;46.81;100387.97;254034;1102;115897;-70
2021/09/08 15:05:41;;;;;;;15.08;9.23;;;;;;;24.99;46.56;100398.88;254304;1104;116444;-69
2021/09/08 15:10:49;;;;;;;10.40;8.45;;;;;;;24.90;47.86;100381.63;255703;1104;116008;-69
2021/09/08 15:15:53;;;;;;;11.28;8.68;;;;;;;24.79;47.95;100380.28;255901;1101;115899;-69
2021/09/08 15:20:55;;;;;;;10.10;9.10;;;;;;;24.70;48.14;100365.83;254165;1102;115771;-70
2021/09/08 15:25:59;;;;;;;10.30;8.48;;;;;;;24.53;48.33;100366.52;254191;1101;115747;-69
2021/09/08 15:31:03;;;;;;;20.43;9.05;;;;;;;24.37;49.43;100368.84;254295;1104;116654;-68
2021/09/08 15:36:07;;;;;;;10.67;8.17;;;;;;;24.19;49.72;100359.71;254352;1102;115753;-68
2021/09/08 15:41:10;;;;;;;11.43;9.93;;;;;;;24.02;50.25;100362.33;255476;1101;115715;-67
2021/09/08 15:46:13;;;;;;;9.60;8.63;;;;;;;23.81;51.06;100353.84;254343;1101;115920;-68
2021/09/08 15:51:17;;;;;;;11.78;9.13;;;;;;;23.59;51.44;100353.78;254392;1103;115846;-69
2021/09/08 15:56:21;;;;;;;17.60;9.58;;;;;;;23.37;51.94;100343.63;254405;1101;115438;-67
2021/09/08 16:01:24;;;;;;;9.33;8.05;;;;;;;23.14;52.23;100340.03;254281;1101;116322;-67
2021/09/08 16:06:28;;;;;;;10.55;9.45;;;;;;;22.91;52.65;100343.77;254731;1101;116482;-68
2021/09/08 16:11:33;;;;;;;15.38;10.53;;;;;;;22.67;53.39;100340.38;254224;1102;118224;-68
2021/09/08 16:16:39;;;;;;;10.53;9.43;;;;;;;22.45;54.59;100335.63;254793;1101;116450;-69
2021/09/08 16:21:44;;;;;;;11.43;8.73;;;;;;;22.23;55.31;100335.47;255061;1101;115477;-72
2021/09/08 16:26:49;;;;;;;11.73;9.63;;;;;;;22.00;56.14;100331.75;255240;1102;116134;-71
2021/09/08 16:31:52;;;;;;;10.53;8.95;;;;;;;21.74;56.68;100323.17;254110;1102;118491;-69
2021/09/08 16:36:57;;;;;;;10.48;9.28;;;;;;;21.50;57.15;100329.48;254211;1102;121784;-70
2021/09/08 16:42:01;;;;;;;11.08;9.90;;;;;;;21.28;57.50;100325.73;254202;1096;116723;-68
2021/09/08 16:47:08;;;;;;;10.10;9.07;;;;;;;21.08;57.99;100326.78;255621;1102;116652;-69
2021/09/08 16:52:11;;;;;;;12.48;9.43;;;;;;;20.88;58.53;100329.71;254264;1101;203540;-69
2021/09/08 16:57:14;;;;;;;14.75;9.30;;;;;;;20.68;59.20;100319.91;257031;1101;115641;-68
2021/09/08 17:02:17;;;;;;;12.67;9.13;;;;;;;20.45;59.38;100319.61;257303;1101;118957;-67
2021/09/08 17:07:22;;;;;;;15.65;9.85;;;;;;;20.24;59.89;100314.62;256261;1097;116258;-67
2021/09/08 17:12:26;;;;;;;12.65;9.58;;;;;;;20.03;60.36;100319.41;256129;1101;115475;-68
2021/09/08 17:17:30;;;;;;;14.48;9.55;;;;;;;19.80;60.96;100324.45;254625;1101;115943;-66
2021/09/08 17:22:34;;;;;;;14.85;9.63;;;;;;;19.55;61.03;100323.81;254032;1101;115293;-67
2021/09/08 17:27:38;;;;;;;10.65;8.53;;;;;;;19.26;61.64;100327.16;254048;1101;115673;-66
2021/09/08 17:32:42;;;;;;;9.75;8.75;;;;;;;18.97;61.77;100324.30;254174;1104;115569;-67
2021/09/08 17:37:46;;;;;;;19.27;9.13;;;;;;;18.73;62.16;100332.21;254311;1101;208944;-66
2021/09/08 17:42:53;;;;;;;9.00;8.10;;;;;;;18.40;62.35;100330.08;254162;1104;116541;-66
2021/09/08 17:47:59;;;;;;;13.70;10.45;;;;;;;18.12;63.06;100337.66;255801;1104;115664;-67
2021/09/08 17:53:04;;;;;;;9.25;8.40;;;;;;;17.85;63.47;100331.70;254070;1104;115922;-67
2021/09/08 17:58:10;;;;;;;11.45;9.53;;;;;;;17.64;63.83;100338.13;255175;1104;116579;-67
2021/09/08 18:03:14;;;;;;;15.73;10.05;;;;;;;17.48;64.42;100340.77;254556;1104;118024;-68
2021/09/08 18:08:21;;;;;;;11.90;10.48;;;;;;;17.45;64.87;100341.29;254230;1103;116184;-66
2021/09/08 18:13:24;;;;;;;18.35;11.05;;;;;;;17.36;65.07;100342.09;254198;1097;119741;-68
2021/09/08 18:18:28;;;;;;;14.93;11.45;;;;;;;17.27;65.32;100349.05;254218;1096;116852;-68
2021/09/08 18:23:31;;;;;;;15.43;9.80;;;;;;;17.07;65.42;100342.52;254244;1102;116825;-68
2021/09/08 18:28:35;;;;;;;19.55;10.80;;;;;;;16.74;65.79;100345.58;254438;1102;120753;-65
2021/09/08 18:33:40;;;;;;;16.95;12.70;;;;;;;16.46;66.10;100346.71;254642;1102;117011;-66
2021/09/08 18:38:45;;;;;;;19.88;13.10;;;;;;;16.28;66.49;100347.09;255690;1104;115495;-66
2021/09/08 18:43:49;;;;;;;18.68;12.50;;;;;;;16.15;67.11;100348.36;255994;1104;116504;-66
2021/09/08 18:48:53;;;;;;;33.05;13.28;;;;;;;16.03;67.20;100348.52;256905;1103;136317;-66
2021/09/08 18:53:57;;;;;;;17.73;12.85;;;;;;;15.89;67.45;100347.33;256964;1104;117519;-67
2021/09/08 18:59:00;;;;;;;17.53;12.33;;;;;;;15.76;67.73;100343.16;256213;1104;116858;-66
2021/09/08 19:04:03;;;;;;;21.20;13.15;;;;;;;15.65;67.95;100343.30;256883;1101;116861;-66
2021/09/08 19:09:07;;;;;;;16.33;12.70;;;;;;;15.52;68.13;100333.74;255238;1097;116201;-65
2021/09/08 19:14:11;;;;;;;21.05;13.10;;;;;;;15.39;68.66;100334.13;256186;1102;116774;-66
2021/09/08 19:19:14;;;;;;;21.88;13.70;;;;;;;15.30;68.47;100327.56;254183;1103;116038;-66
2021/09/08 19:24:18;;;;;;;19.23;14.23;;;;;;;15.19;68.76;100339.27;255533;1097;117030;-66
2021/09/08 19:29:21;;;;;;;16.10;12.90;;;;;;;15.02;69.31;100329.38;254194;1096;115938;-65
2021/09/08 19:34:24;;;;;;;23.93;18.15;;;;;;;14.85;69.44;100334.00;255123;1104;116813;-66
2021/09/08 19:39:29;;;;;;;22.58;15.93;;;;;;;14.74;70.11;100327.67;254029;1104;116583;-67
2021/09/08 19:44:33;;;;;;;18.08;14.45;;;;;;;14.69;70.04;100335.65;254043;1103;116437;-67
2021/09/08 19:49:36;;;;;;;38.13;16.87;;;;;;;14.62;70.43;100331.55;254228;1104;116129;-68
2021/09/08 19:54:39;;;;;;;26.13;15.18;;;;;;;14.49;70.37;100335.37;254164;1104;115890;-68
2021/09/08 19:59:43;;;;;;;17.15;12.55;;;;;;;14.40;70.73;100321.52;254292;1096;116178;-67
2021/09/08 20:04:47;;;;;;;30.90;16.53;;;;;;;14.26;70.95;100328.29;254942;1103;117517;-67
2021/09/08 20:09:51;;;;;;;20.52;14.88;;;;;;;14.14;70.75;100330.23;254104;1104;115430;-68
2021/09/08 20:14:57;;;;;;;18.55;13.88;;;;;;;14.06;71.10;100330.66;254412;1102;115536;-67
2021/09/08 20:20:01;;;;;;;;;;;;;;;13.98;70.96;100323.00;254705;1103;116418;-67
2021/09/08 20:25:05;;;;;;;25.88;15.05;;;;;;;13.93;71.60;100325.59;256450;1102;103017;-66
2021/09/08 20:30:10;;;;;;;20.43;14.40;;;;;;;13.95;71.41;100320.80;255426;1102;117925;-67
2021/09/08 20:35:15;;;;;;;21.98;13.38;;;;;;;13.88;71.57;100320.14;255972;1101;116315;-67
2021/09/08 20:40:18;;;;;;;20.88;11.78;;;;;;;13.78;71.49;100320.77;257063;1101;117284;-67
2021/09/08 20:45:22;;;;;;;22.38;12.40;;;;;;;13.71;72.07;100320.13;256666;1101;116144;-67
2021/09/08 20:50:25;;;;;;;27.85;14.65;;;;;;;13.66;71.58;100315.48;257491;1101;117097;-67
2021/09/08 20:55:29;;;;;;;21.95;14.65;;;;;;;13.67;71.88;100305.59;257464;1101;116428;-66
2021/09/08 21:00:32;;;;;;;28.78;16.78;;;;;;;13.66;71.60;100315.48;257214;1103;117259;-67
2021/09/08 21:05:36;;;;;;;15.37;11.77;;;;;;;13.63;71.45;100318.64;255601;1103;116844;-67
2021/09/08 21:10:43;;;;;;;17.37;12.73;;;;;;;13.46;71.58;100313.23;255964;1103;116161;-66
2021/09/08 21:15:45;;;;;;;;;;;;;;;13.34;72.01;100317.02;255112;1104;115997;-66
2021/09/08 21:20:50;;;;;;;16.80;14.28;;;;;;;13.20;72.06;100300.41;257164;1101;102951;-67
2021/09/08 21:25:54;;;;;;;17.73;12.67;;;;;;;13.10;72.53;100302.88;255200;1101;115831;-66
2021/09/08 21:30:58;;;;;;;16.15;13.20;;;;;;;13.03;72.33;100308.36;255957;1102;115663;-67
2021/09/08 21:36:02;;;;;;;22.75;14.85;;;;;;;12.96;72.36;100306.86;255497;1101;115517;-65
2021/09/08 21:41:06;;;;;;;21.00;14.37;;;;;;;12.89;72.88;100309.66;255677;1101;116209;-67
2021/09/08 21:46:11;;;;;;;25.98;15.80;;;;;;;12.90;73.69;100297.09;254973;1101;115982;-66
2021/09/08 21:51:15;;;;;;;18.23;14.40;;;;;;;12.91;72.91;100298.72;255036;1101;115563;-67
2021/09/08 21:56:19;;;;;;;19.75;14.85;;;;;;;12.94;72.56;100299.06;255055;1104;116067;-66
2021/09/08 22:01:24;;;;;;;20.83;13.30;;;;;;;12.89;72.74;100303.49;254525;1097;118091;-65
2021/09/08 22:06:29;;;;;;;25.43;13.40;;;;;;;12.75;72.97;100302.95;254843;1102;117277;-65
2021/09/08 22:11:33;;;;;;;19.38;12.98;;;;;;;12.70;73.27;100294.81;254578;1103;117223;-64
2021/09/08 22:16:37;;;;;;;19.03;14.58;;;;;;;12.60;73.01;100305.28;255030;1101;117142;-66
2021/09/08 22:21:41;;;;;;;26.10;15.30;;;;;;;12.56;73.25;100302.26;254436;1101;116838;-66
2021/09/08 22:26:44;;;;;;;19.23;14.65;;;;;;;12.57;73.49;100303.07;255981;1103;116790;-68
2021/09/08 22:31:48;;;;;;;18.80;14.40;;;;;;;12.60;73.47;100299.93;254724;1101;117137;-66
2021/09/08 22:36:51;;;;;;;24.33;16.43;;;;;;;12.52;73.48;100297.63;254292;1104;117684;-67
2021/09/08 22:41:55;;;;;;;22.30;15.40;;;;;;;12.47;73.27;100296.47;257083;1103;116995;-68
2021/09/08 22:46:59;;;;;;;18.50;15.13;;;;;;;12.37;73.81;100298.91;256467;1104;117151;-67